Time;durP1;ratioP1;P1;durP2;ratioP2;P2;SDS_P1;SDS_P2;PMS_P1;PMS_P2;Temp;Humidity;BMP_temperature;BMP_pressure;BME280_temperature;BME280_humidity;BME280_pressure;Samples;Min_cycle;Max_cycle;Signal;HPM_P1;HPM_P2
2022/01/14 00:01:34;;;;;;;;;;;;;;;-0.57;85.55;103113.22;5036325;27;20008;-68
2022/01/14 00:03:59;;;;;;;;;;;;;;;-0.60;85.78;103114.09;5019717;27;20134;-70
2022/01/14 00:06:24;;;;;;;;;;;;;;;-0.57;85.86;103102.84;5037171;27;20346;-70
2022/01/14 00:08:49;;;;;;;;;;;;;;;-0.61;85.45;103104.56;5033903;27;20238;-70
2022/01/14 00:11:15;;;;;;;;;;;;;;;-0.64;84.97;103114.13;5050974;27;20004;-70
2022/01/14 00:13:54;;;;;;;;;;;;;;;-0.66;85.12;103105.47;5037978;27;19990;-69
2022/01/14 00:16:19;;;;;;;;;;;;;;;-0.73;85.23;103097.69;5018203;27;20319;-68
2022/01/14 00:18:46;;;;;;;;;;;;;;;-0.73;85.31;103095.09;5017178;27;19900;-70
2022/01/14 00:21:11;;;;;;;;;;;;;;;-0.69;84.84;103095.97;5018573;27;19907;-70
2022/01/14 00:23:39;;;;;;;;;;;;;;;-0.79;85.43;103092.53;5015773;27;19976;-69
2022/01/14 00:34:12;;;;;;;;;;;;;;;-0.78;85.00;103089.03;5017153;27;19911;-67
2022/01/14 00:36:37;;;;;;;;;;;;;;;-0.82;85.11;103087.31;5016332;27;19956;-67
2022/01/14 00:39:03;;;;;;;;;;;;;;;-0.81;85.41;103083.84;5036615;27;19908;-71
2022/01/14 00:41:28;;;;;;;;;;;;;;;-0.81;85.16;103080.41;5039683;27;19918;-68
2022/01/14 00:44:00;;;;;;;;;;;;;;;-0.83;85.38;103074.31;5057138;27;19923;-68
2022/01/14 00:46:25;;;;;;;;;;;;;;;-0.80;85.68;103085.59;5073482;27;20003;-68
2022/01/14 00:48:51;;;;;;;;;;;;;;;-0.84;85.29;103083.88;5078920;27;19922;-68
2022/01/14 00:51:16;;;;;;;;;;;;;;;-0.82;85.20;103076.91;5073926;27;19963;-67
2022/01/14 00:53:41;;;;;;;;;;;;;;;-0.85;85.30;103092.53;5055214;27;20012;-69
2022/01/14 00:56:20;;;;;;;;;;;;;;;-0.83;85.14;103084.72;5057075;27;20012;-68
2022/01/14 01:01:29;;;;;;;;;;;;;;;-0.81;85.35;103081.25;5040427;27;19963;-69
2022/01/14 01:03:54;;;;;;;;;;;;;;;-0.80;85.06;103088.19;5040287;27;19927;-69
2022/01/14 01:06:19;;;;;;;;;;;;;;;-0.82;85.12;103084.72;5055663;27;19964;-68
2022/01/14 01:08:46;;;;;;;;;;;;;;;-0.85;85.64;103081.28;5038330;27;19911;-70
2022/01/14 01:11:12;;;;;;;;;;;;;;;-0.85;85.15;103078.69;5058774;27;20896;-67
2022/01/14 01:13:42;;;;;;;;;;;;;;;-0.89;85.29;103070.00;5038749;27;19911;-69
2022/01/14 01:16:07;;;;;;;;;;;;;;;-0.93;85.37;103076.97;5060434;27;19915;-68
2022/01/14 01:18:33;;;;;;;;;;;;;;;-0.93;85.49;103065.69;5077788;27;19903;-68
2022/01/14 01:21:00;;;;;;;;;;;;;;;-0.92;85.48;103080.41;5071868;27;20072;-67
2022/01/14 01:23:25;;;;;;;;;;;;;;;-0.74;85.29;103069.09;5054668;27;19981;-71
2022/01/14 01:25:58;;;;;;;;;;;;;;;-0.72;84.70;103069.94;5056930;27;20962;-70
2022/01/14 01:28:24;;;;;;;;;;;;;;;-0.67;83.91;103069.94;5037274;27;20005;-69
2022/01/14 01:33:15;;;;;;;;;;;;;;;-0.85;84.60;103060.47;5056228;27;20336;-69
2022/01/14 01:35:40;;;;;;;;;;;;;;;-0.87;85.06;103063.09;5036772;27;19911;-70
2022/01/14 01:38:05;;;;;;;;;;;;;;;-0.79;85.07;103060.44;5055879;27;20230;-69
2022/01/14 01:40:30;;;;;;;;;;;;;;;-0.77;84.89;103056.13;5034874;27;19930;-71
2022/01/14 01:42:56;;;;;;;;;;;;;;;-0.87;85.03;103052.69;5055542;27;20134;-69
2022/01/14 01:45:24;;;;;;;;;;;;;;;-0.84;85.27;103067.41;5034749;27;20036;-70
2022/01/14 01:47:50;;;;;;;;;;;;;;;-0.92;85.29;103055.28;5056081;27;19913;-69
2022/01/14 01:50:19;;;;;;;;;;;;;;;-0.96;85.49;103058.78;5059756;27;19912;-70
2022/01/14 01:52:45;;;;;;;;;;;;;;;-0.95;85.92;103054.44;5055220;27;20959;-70
2022/01/14 01:55:10;;;;;;;;;;;;;;;-0.90;85.79;103052.72;5057239;27;19908;-69
2022/01/14 01:57:35;;;;;;;;;;;;;;;-0.94;85.44;103049.25;5039722;27;19899;-68
2022/01/14 02:00:01;;;;;;;;;;;;;;;-0.95;85.40;103057.06;5059957;27;20652;-69
2022/01/14 02:02:26;;;;;;;;;;;;;;;-0.82;84.67;103053.50;5063718;27;19941;-68
2022/01/14 02:04:51;;;;;;;;;;;;;;;-0.90;84.29;103050.97;5041163;27;20312;-67
2022/01/14 02:07:16;;;;;;;;;;;;;;;-0.93;84.70;103053.56;5059000;27;20019;-69
2022/01/14 02:09:41;;;;;;;;;;;;;;;-1.01;84.77;103057.09;5057627;27;20350;-68
2022/01/14 02:12:10;;;;;;;;;;;;;;;-1.03;85.14;103046.66;5072747;27;20000;-69
2022/01/14 02:19:32;;;;;;;;;;;;;;;-1.00;84.89;103040.59;5081180;27;19914;-67
2022/01/14 02:22:15;;;;;;;;;;;;;;;-0.99;85.38;103038.00;5046038;27;20020;-68
2022/01/14 02:27:07;;;;;;;;;;;;;;;-1.08;85.24;103038.88;5056624;27;19909;-69
2022/01/14 02:29:32;;;;;;;;;;;;;;;-1.14;85.56;103038.91;5036811;27;20086;-69
2022/01/14 02:31:57;;;;;;;;;;;;;;;-1.14;85.77;103028.53;5049839;27;19963;-68
2022/01/14 02:34:23;;;;;;;;;;;;;;;-1.07;85.59;103030.22;5059394;27;20392;-69
2022/01/14 02:36:48;;;;;;;;;;;;;;;-1.08;85.71;103027.66;5065566;27;20433;-68
2022/01/14 02:39:14;;;;;;;;;;;;;;;-1.09;85.12;103028.50;5057632;27;20020;-69
2022/01/14 02:41:40;;;;;;;;;;;;;;;-1.18;85.50;103032.00;5056227;27;19914;-68
2022/01/14 02:44:05;;;;;;;;;;;;;;;-1.16;85.43;103037.19;5037057;27;19956;-68
2022/01/14 02:46:37;;;;;;;;;;;;;;;-1.15;85.12;103036.34;5041635;27;19945;-69
2022/01/14 02:49:02;;;;;;;;;;;;;;;-1.08;85.33;103025.91;5059828;27;19907;-69
2022/01/14 02:51:28;;;;;;;;;;;;;;;-1.18;85.58;103033.72;5035648;27;20136;-69
2022/01/14 02:53:59;;;;;;;;;;;;;;;-1.16;85.26;103019.84;5015533;27;20287;-69
2022/01/14 02:56:32;;;;;;;;;;;;;;;-0.96;84.84;103021.53;5036645;27;19900;-68
2022/01/14 02:58:57;;;;;;;;;;;;;;;-0.95;84.01;103031.91;5032921;27;19907;-69
2022/01/14 03:01:25;;;;;;;;;;;;;;;-1.16;83.85;103030.25;5038136;27;19900;-69
2022/01/14 03:03:54;;;;;;;;;;;;;;;-1.12;84.56;103029.38;5039998;27;19915;-67
2022/01/14 03:06:19;;;;;;;;;;;;;;;-1.15;84.74;103039.78;5044719;27;19899;-68
2022/01/14 03:08:44;;;;;;;;;;;;;;;-1.17;84.84;103038.94;5038496;27;19968;-70
2022/01/14 03:11:28;;;;;;;;;;;;;;;-1.17;85.20;103032.84;5041259;27;20368;-70
2022/01/14 03:13:53;;;;;;;;;;;;;;;-1.14;85.52;103027.66;5057519;27;20837;-70
2022/01/14 03:16:20;;;;;;;;;;;;;;;-1.13;86.08;103027.66;5056647;27;19970;-70
2022/01/14 03:18:49;;;;;;;;;;;;;;;-1.18;85.38;103016.41;5060804;27;19911;-71
2022/01/14 03:21:16;;;;;;;;;;;;;;;-1.16;85.03;103014.66;5054021;27;20863;-69
2022/01/14 03:23:47;;;;;;;;;;;;;;;-1.24;84.78;103003.41;5054567;27;20162;-69
2022/01/14 03:26:13;;;;;;;;;;;;;;;-1.28;84.81;103006.94;5057006;27;20004;-69
2022/01/14 03:28:38;;;;;;;;;;;;;;;-1.28;84.97;102999.13;5040482;27;20673;-70
2022/01/14 03:31:03;;;;;;;;;;;;;;;-1.28;85.22;103002.59;5057407;27;19914;-68
2022/01/14 03:33:29;;;;;;;;;;;;;;;-1.28;85.23;102994.78;5059712;27;20077;-69
2022/01/14 03:35:54;;;;;;;;;;;;;;;-1.27;85.70;102993.06;5055170;27;20657;-67
2022/01/14 03:38:19;;;;;;;;;;;;;;;-1.22;85.06;102980.91;5038579;27;19949;-70
2022/01/14 03:40:44;;;;;;;;;;;;;;;-1.31;84.82;102978.34;5056415;27;20212;-68
2022/01/14 03:43:10;;;;;;;;;;;;;;;-1.29;84.91;102982.66;5054454;27;20314;-71
2022/01/14 03:45:38;;;;;;;;;;;;;;;-1.29;85.21;102971.44;5054892;27;20011;-68
2022/01/14 03:48:03;;;;;;;;;;;;;;;-1.34;85.51;102973.16;5038943;27;19917;-68
2022/01/14 03:50:28;;;;;;;;;;;;;;;-1.40;85.73;102967.13;5037167;27;19903;-68
2022/01/14 03:52:54;;;;;;;;;;;;;;;-1.36;85.55;102965.38;5036880;27;19907;-67
2022/01/14 03:55:19;;;;;;;;;;;;;;;-1.31;85.56;102965.34;5054272;27;19913;-68
2022/01/14 03:57:44;;;;;;;;;;;;;;;-1.27;85.19;102964.47;5055411;27;20073;-68
2022/01/14 04:00:10;;;;;;;;;;;;;;;-1.31;84.73;102965.34;5052965;27;19911;-69
2022/01/14 04:02:35;;;;;;;;;;;;;;;-1.36;84.71;102964.53;5058112;27;20383;-69
2022/01/14 04:05:00;;;;;;;;;;;;;;;-1.32;85.30;102956.72;5053581;27;20432;-69
2022/01/14 04:07:25;;;;;;;;;;;;;;;-1.33;85.01;102972.31;5036231;27;19912;-69
2022/01/14 04:09:51;;;;;;;;;;;;;;;-1.34;84.94;102968.84;5054269;27;20004;-69
2022/01/14 04:12:29;;;;;;;;;;;;;;;-1.29;84.72;102961.03;5056240;27;20315;-69
2022/01/14 04:17:19;;;;;;;;;;;;;;;-1.39;85.00;102955.84;5056899;27;20013;-68
2022/01/14 04:19:45;;;;;;;;;;;;;;;-1.34;85.03;102952.38;5052576;27;19909;-69
2022/01/14 04:22:10;;;;;;;;;;;;;;;-1.32;84.91;102955.84;5054779;27;19915;-69
2022/01/14 04:24:35;;;;;;;;;;;;;;;-1.41;85.06;102951.53;5042166;27;19929;-69
2022/01/14 04:27:00;;;;;;;;;;;;;;;-1.47;84.95;102942.03;5019285;27;19907;-69
2022/01/14 04:29:25;;;;;;;;;;;;;;;-1.47;85.13;102946.38;5031866;27;19922;-69
2022/01/14 04:31:51;;;;;;;;;;;;;;;-1.44;85.24;102941.16;5037131;27;19933;-69
2022/01/14 04:34:16;;;;;;;;;;;;;;;-1.45;85.38;102945.50;5034962;27;20008;-69
2022/01/14 04:36:42;;;;;;;;;;;;;;;-1.44;85.60;102942.03;5039758;27;20014;-69
2022/01/14 04:39:07;;;;;;;;;;;;;;;-1.48;85.19;102942.91;5023976;27;19914;-67
2022/01/14 04:41:32;;;;;;;;;;;;;;;-1.53;85.11;102931.66;5033108;27;19911;-69
2022/01/14 04:43:57;;;;;;;;;;;;;;;-1.48;85.19;102929.94;5038672;27;20012;-67
2022/01/14 04:49:20;;;;;;;;;;;;;;;-1.41;84.98;102947.22;5007378;27;19914;-69
2022/01/14 04:51:45;;;;;;;;;;;;;;;-1.30;84.29;102943.72;5056900;27;19911;-68
2022/01/14 04:54:10;;;;;;;;;;;;;;;-1.36;84.03;102948.94;5043269;27;19919;-68
2022/01/14 04:56:36;;;;;;;;;;;;;;;-1.44;84.37;102948.94;5034966;27;19907;-68
2022/01/14 04:59:01;;;;;;;;;;;;;;;-1.48;84.22;102942.91;5032565;27;19947;-69
2022/01/14 05:01:26;;;;;;;;;;;;;;;-1.53;84.54;102936.00;5035400;27;20443;-69
2022/01/14 05:03:51;;;;;;;;;;;;;;;-1.53;84.79;102938.59;5031041;27;19915;-67
2022/01/14 05:06:17;;;;;;;;;;;;;;;-1.53;85.08;102936.88;5045658;27;20001;-70
2022/01/14 05:08:42;;;;;;;;;;;;;;;-1.60;84.99;102935.16;5052689;27;19944;-70
2022/01/14 05:13:44;;;;;;;;;;;;;;;-1.60;84.89;102924.78;5059338;27;20602;-71
2022/01/14 05:16:09;;;;;;;;;;;;;;;-1.51;85.01;102940.31;5057080;27;19911;-69
2022/01/14 05:18:37;;;;;;;;;;;;;;;-1.61;84.65;102923.03;5035241;27;19903;-72
2022/01/14 05:21:03;;;;;;;;;;;;;;;-1.45;84.80;102942.06;5055007;27;20098;-69
2022/01/14 05:23:28;;;;;;;;;;;;;;;-1.49;84.65;102937.72;5036082;27;20928;-68
2022/01/14 05:25:54;;;;;;;;;;;;;;;-1.50;84.70;102936.84;5028215;27;19919;-70
2022/01/14 05:28:19;;;;;;;;;;;;;;;-1.57;84.80;102945.53;5037835;27;20024;-69
2022/01/14 05:30:44;;;;;;;;;;;;;;;-1.62;84.98;102942.06;5057476;27;20015;-69
2022/01/14 05:33:09;;;;;;;;;;;;;;;-1.61;85.13;102938.63;5034566;27;20190;-68
2022/01/14 05:35:35;;;;;;;;;;;;;;;-1.63;85.12;102935.16;5049302;27;20004;-68
2022/01/14 05:38:00;;;;;;;;;;;;;;;-1.63;85.08;102940.38;5058563;27;20773;-69
2022/01/14 05:40:27;;;;;;;;;;;;;;;-1.66;84.85;102925.66;5018343;27;20381;-69
2022/01/14 05:42:52;;;;;;;;;;;;;;;-1.70;85.08;102928.28;5050106;27;20802;-68
2022/01/14 05:45:17;;;;;;;;;;;;;;;-1.74;85.35;102933.44;5034105;27;19923;-70
2022/01/14 05:47:43;;;;;;;;;;;;;;;-1.64;85.25;102930.84;5028507;27;19922;-68
2022/01/14 05:50:08;;;;;;;;;;;;;;;-1.56;84.84;102942.94;5027801;27;20460;-68
2022/01/14 05:52:34;;;;;;;;;;;;;;;-1.61;84.50;102943.81;5030073;27;19900;-70
2022/01/14 05:54:59;;;;;;;;;;;;;;;-1.66;84.77;102937.78;5035925;27;20103;-68
2022/01/14 05:57:24;;;;;;;;;;;;;;;-1.69;85.12;102940.34;5035971;27;20009;-69
2022/01/14 05:59:49;;;;;;;;;;;;;;;-1.71;85.64;102931.72;5035741;27;20326;-69
2022/01/14 06:02:15;;;;;;;;;;;;;;;-1.69;85.32;102937.75;5031702;27;20077;-69
2022/01/14 06:04:40;;;;;;;;;;;;;;;-1.70;85.30;102943.84;5018448;27;19976;-69
2022/01/14 06:07:05;;;;;;;;;;;;;;;-1.72;84.66;102936.06;5024431;27;19907;-69
2022/01/14 06:09:30;;;;;;;;;;;;;;;-1.76;84.76;102939.53;5037401;27;19956;-69
2022/01/14 06:11:56;;;;;;;;;;;;;;;-1.75;85.04;102941.22;5032971;27;20644;-67
2022/01/14 06:14:21;;;;;;;;;;;;;;;-1.76;84.59;102937.78;5038785;27;20008;-69
2022/01/14 06:16:46;;;;;;;;;;;;;;;-1.79;84.87;102935.19;5035882;27;20275;-69
2022/01/14 06:19:11;;;;;;;;;;;;;;;-1.79;84.21;102937.78;5036441;27;20133;-69
2022/01/14 06:21:36;;;;;;;;;;;;;;;-1.83;84.13;102933.47;5034754;27;19908;-69
2022/01/14 06:24:02;;;;;;;;;;;;;;;-1.85;84.72;102930.00;5035215;27;19928;-69
2022/01/14 06:26:27;;;;;;;;;;;;;;;-1.86;85.08;102923.09;5034040;27;19903;-68
2022/01/14 06:28:53;;;;;;;;;;;;;;;-1.85;85.23;102927.41;5035320;27;20005;-68
2022/01/14 06:31:18;;;;;;;;;;;;;;;-1.87;84.76;102931.75;5037069;27;20581;-68
2022/01/14 06:33:43;;;;;;;;;;;;;;;-1.83;84.82;102933.47;5035485;27;20483;-70
2022/01/14 06:36:09;;;;;;;;;;;;;;;-1.81;84.69;102929.13;5039420;27;19911;-68
2022/01/14 06:38:34;;;;;;;;;;;;;;;-1.83;84.26;102928.28;5037996;27;20001;-67
2022/01/14 06:40:59;;;;;;;;;;;;;;;-1.89;84.21;102928.28;5040341;27;19903;-68
2022/01/14 06:43:24;;;;;;;;;;;;;;;-1.94;84.40;102925.69;5035532;27;19918;-67
2022/01/14 06:45:50;;;;;;;;;;;;;;;-1.92;84.77;102929.19;5047374;27;19919;-67
2022/01/14 06:48:15;;;;;;;;;;;;;;;-1.82;84.52;102935.22;5039302;27;20056;-69
2022/01/14 06:50:40;;;;;;;;;;;;;;;-1.76;83.72;102930.00;5055365;27;19907;-67
2022/01/14 06:53:05;;;;;;;;;;;;;;;-1.76;83.87;102935.19;5024778;27;19963;-68
2022/01/14 06:55:30;;;;;;;;;;;;;;;-1.87;84.06;102923.97;5060681;27;19919;-70
2022/01/14 06:57:56;;;;;;;;;;;;;;;-1.75;84.08;102931.75;5044657;27;20525;-70
2022/01/14 07:00:21;;;;;;;;;;;;;;;-1.79;83.32;102929.13;5068545;27;19955;-68
2022/01/14 07:02:47;;;;;;;;;;;;;;;-1.85;83.86;102913.59;5062550;27;20412;-68
2022/01/14 07:05:12;;;;;;;;;;;;;;;-1.87;84.45;102915.34;5060001;27;19941;-71
2022/01/14 07:07:37;;;;;;;;;;;;;;;-1.84;84.61;102916.16;5058185;27;20000;-68
2022/01/14 07:10:03;;;;;;;;;;;;;;;-1.94;84.57;102917.91;5036289;27;19970;-69
2022/01/14 07:12:29;;;;;;;;;;;;;;;-1.85;84.61;102911.84;5058412;27;19911;-69
2022/01/14 07:14:56;;;;;;;;;;;;;;;-1.96;84.56;102921.38;5059259;27;20058;-70
2022/01/14 07:17:21;;;;;;;;;;;;;;;-1.99;84.56;102916.19;5036900;27;19955;-67
2022/01/14 07:19:49;;;;;;;;;;;;;;;-2.00;84.67;102915.34;5039099;27;19907;-70
2022/01/14 07:22:14;;;;;;;;;;;;;;;-1.95;84.85;102912.72;5037999;27;19922;-69
2022/01/14 07:24:39;;;;;;;;;;;;;;;-1.87;84.83;102917.94;5061393;27;19923;-69
2022/01/14 07:27:04;;;;;;;;;;;;;;;-1.89;84.72;102902.31;5039487;27;19975;-69
2022/01/14 07:29:30;;;;;;;;;;;;;;;-1.92;84.83;102902.34;5058039;27;19977;-67
2022/01/14 07:31:55;;;;;;;;;;;;;;;-1.86;84.35;102901.47;5059014;27;19904;-67
2022/01/14 07:34:20;;;;;;;;;;;;;;;-1.92;84.54;102911.00;5040880;27;19983;-66
2022/01/14 07:36:45;;;;;;;;;;;;;;;-1.92;84.26;102912.72;5058174;27;20004;-67
2022/01/14 07:39:11;;;;;;;;;;;;;;;-1.83;83.69;102910.13;5040656;27;19912;-66
2022/01/14 07:41:36;;;;;;;;;;;;;;;-1.85;83.73;102909.25;5055955;27;19960;-68
2022/01/14 07:44:02;;;;;;;;;;;;;;;-1.91;84.13;102906.66;5038016;27;19971;-69
2022/01/14 07:46:27;;;;;;;;;;;;;;;-1.88;84.01;102911.84;5028518;27;19930;-70
2022/01/14 07:48:52;;;;;;;;;;;;;;;-1.82;84.67;102916.16;5023913;27;19910;-67
2022/01/14 07:51:17;;;;;;;;;;;;;;;-1.68;83.76;102916.13;5037141;27;19944;-67
2022/01/14 07:53:42;;;;;;;;;;;;;;;-1.76;83.92;102930.00;5022145;27;20032;-67
2022/01/14 07:56:11;;;;;;;;;;;;;;;-1.76;83.97;102918.75;5034832;27;20028;-66
2022/01/14 07:58:36;;;;;;;;;;;;;;;-1.80;84.27;102923.09;5035696;27;19960;-67
2022/01/14 08:01:02;;;;;;;;;;;;;;;-1.69;84.92;102932.56;5020026;27;20879;-66
2022/01/14 08:03:27;;;;;;;;;;;;;;;-1.69;84.06;102938.66;5048761;27;20845;-67
2022/01/14 08:05:54;;;;;;;;;;;;;;;-1.49;83.52;102933.38;5056782;27;20035;-67
2022/01/14 08:08:19;;;;;;;;;;;;;;;-1.46;82.78;102940.31;5040891;27;19980;-67
2022/01/14 08:10:44;;;;;;;;;;;;;;;-1.47;83.50;102938.56;5053919;27;19962;-67
2022/01/14 08:13:10;;;;;;;;;;;;;;;-1.52;83.64;102948.09;5061856;27;20092;-67
2022/01/14 08:15:35;;;;;;;;;;;;;;;-1.58;84.00;102938.59;5043100;27;19914;-67
2022/01/14 08:18:01;;;;;;;;;;;;;;;-1.51;83.64;102935.13;5080361;27;20472;-69
2022/01/14 08:20:26;;;;;;;;;;;;;;;-1.49;84.28;102932.53;5061394;27;20384;-67
2022/01/14 08:22:52;;;;;;;;;;;;;;;-1.44;84.03;102921.28;5044452;27;19987;-66
2022/01/14 08:25:17;;;;;;;;;;;;;;;-1.33;84.06;102922.94;5039534;27;20329;-68
2022/01/14 08:27:42;;;;;;;;;;;;;;;-1.27;84.13;102933.31;5076358;27;19906;-67
2022/01/14 08:30:08;;;;;;;;;;;;;;;-1.26;83.64;102929.84;5060531;27;20628;-70
2022/01/14 08:32:33;;;;;;;;;;;;;;;-1.22;83.78;102936.75;5042373;27;20326;-66
2022/01/14 08:34:58;;;;;;;;;;;;;;;-1.26;84.16;102942.84;5029818;27;19911;-66
2022/01/14 08:37:23;;;;;;;;;;;;;;;-1.21;84.40;102941.94;5038973;27;19921;-65
2022/01/14 08:39:49;;;;;;;;;;;;;;;-1.21;84.50;102939.34;5057132;27;20039;-66
2022/01/14 08:42:14;;;;;;;;;;;;;;;-1.04;84.61;102938.41;5035469;27;19919;-65
2022/01/14 08:44:39;;;;;;;;;;;;;;;-0.88;84.07;102947.84;5036552;27;19926;-66
2022/01/14 08:47:09;;;;;;;;;;;;;;;-0.83;83.74;102941.75;5064158;27;19915;-66
2022/01/14 08:49:34;;;;;;;;;;;;;;;-0.75;83.62;102939.97;5058834;27;19918;-66
2022/01/14 08:51:59;;;;;;;;;;;;;;;-0.66;83.26;102936.44;5038068;27;19911;-67
2022/01/14 08:54:24;;;;;;;;;;;;;;;-0.63;83.42;102931.25;5037924;27;19911;-69
2022/01/14 08:56:49;;;;;;;;;;;;;;;-0.49;83.04;102924.22;5052641;27;20371;-66
2022/01/14 08:59:16;;;;;;;;;;;;;;;-0.38;82.98;102911.09;5060059;27;20861;-67
2022/01/14 09:01:42;;;;;;;;;;;;;;;-0.23;83.09;102921.38;5038137;27;19915;-68
2022/01/14 09:04:07;;;;;;;;;;;;;;;-0.11;82.91;102924.75;5056774;27;19915;-68
2022/01/14 09:06:33;;;;;;;;;;;;;;;0.10;82.28;102924.56;5038858;27;20420;-68
2022/01/14 09:08:58;;;;;;;;;;;;;;;0.34;81.96;102927.81;5042276;27;19907;-70
2022/01/14 09:11:23;;;;;;;;;;;;;;;0.59;81.52;102923.19;5047101;27;19966;-66
2022/01/14 09:13:48;;;;;;;;;;;;;;;0.83;80.55;102926.34;5062378;27;19911;-69
2022/01/14 09:16:16;;;;;;;;;;;;;;;0.95;79.84;102920.97;5065817;27;19911;-69
2022/01/14 09:18:41;;;;;;;;;;;;;;;1.09;79.89;102918.19;5048086;27;20134;-70
2022/01/14 09:21:06;;;;;;;;;;;;;;;1.33;79.50;102924.78;5043042;27;20345;-69
2022/01/14 09:23:33;;;;;;;;;;;;;;;1.57;78.67;102925.28;5047318;27;20807;-68
2022/01/14 09:25:59;;;;;;;;;;;;;;;1.87;77.91;102917.84;5046286;27;19947;-68
2022/01/14 09:28:24;;;;;;;;;;;;;;;2.11;76.41;102926.13;5060657;27;20449;-68
2022/01/14 09:30:49;;;;;;;;;;;;;;;2.16;76.12;102919.09;5047522;27;20382;-68
2022/01/14 09:33:17;;;;;;;;;;;;;;;2.37;75.86;102928.28;5062302;27;19960;-68
2022/01/14 09:35:43;;;;;;;;;;;;;;;2.42;75.36;102941.22;5049566;27;19911;-68
2022/01/14 09:38:08;;;;;;;;;;;;;;;2.35;75.89;102932.63;5069174;27;20375;-68
2022/01/14 09:40:33;;;;;;;;;;;;;;;2.67;75.32;102924.16;5066267;27;20756;-68
2022/01/14 09:43:01;;;;;;;;;;;;;;;3.05;74.20;102906.78;5064214;27;20846;-67
2022/01/14 09:45:26;;;;;;;;;;;;;;;3.26;73.73;102915.06;5067421;27;20037;-66
2022/01/14 09:47:52;;;;;;;;;;;;;;;3.68;72.51;102912.31;5066823;27;20008;-67
2022/01/14 09:50:17;;;;;;;;;;;;;;;4.21;70.66;102922.25;5068202;27;20015;-67
2022/01/14 09:52:45;;;;;;;;;;;;;;;4.56;69.08;102933.53;5065303;27;20328;-67
2022/01/14 09:55:10;;;;;;;;;;;;;;;4.81;68.34;102936.31;5065075;27;20011;-65
2022/01/14 09:57:36;;;;;;;;;;;;;;;4.88;67.09;102931.75;5064034;27;19982;-67
2022/01/14 10:00:02;;;;;;;;;;;;;;;4.80;67.52;102934.59;5060688;27;20283;-67
2022/01/14 10:02:35;;;;;;;;;;;;;;;5.16;66.23;102938.75;5046580;27;19918;-67
2022/01/14 10:05:00;;;;;;;;;;;;;;;5.29;65.49;102939.28;5050673;27;19964;-68
2022/01/14 10:07:26;;;;;;;;;;;;;;;5.37;65.20;102931.13;5068591;27;19976;-67
2022/01/14 10:09:57;;;;;;;;;;;;;;;5.03;66.85;102938.28;5050941;27;20931;-68
2022/01/14 10:12:22;;;;;;;;;;;;;;;5.05;66.72;102947.00;5069572;27;19903;-67
2022/01/14 10:14:57;;;;;;;;;;;;;;;4.86;67.07;102948.44;5071369;27;20168;-67
2022/01/14 10:17:22;;;;;;;;;;;;;;;4.65;67.45;102958.63;5065489;27;20886;-67
2022/01/14 10:19:48;;;;;;;;;;;;;;;4.60;68.37;102955.31;5056972;27;19904;-67
2022/01/14 10:22:26;;;;;;;;;;;;;;;5.15;67.29;102964.16;5037952;27;20349;-66
2022/01/14 10:24:52;;;;;;;;;;;;;;;4.99;67.77;102953.28;5056662;27;19967;-67
2022/01/14 10:27:24;;;;;;;;;;;;;;;5.04;67.84;102960.16;5046369;27;20081;-67
2022/01/14 10:29:50;;;;;;;;;;;;;;;4.45;69.17;102960.03;5043596;27;20650;-68
2022/01/14 10:32:19;;;;;;;;;;;;;;;3.94;71.44;102955.28;5044757;27;19919;-67
2022/01/14 10:34:44;;;;;;;;;;;;;;;3.57;73.80;102950.97;5049733;27;19913;-68
2022/01/14 10:37:13;;;;;;;;;;;;;;;3.36;75.10;102950.56;5042297;27;19908;-68
2022/01/14 10:39:42;;;;;;;;;;;;;;;3.25;75.31;102958.66;5046720;27;19959;-68
2022/01/14 10:42:20;;;;;;;;;;;;;;;3.24;76.23;102946.50;5048138;27;19911;-67
2022/01/14 10:44:45;;;;;;;;;;;;;;;3.02;77.14;102953.09;5050072;27;20235;-68
2022/01/14 10:47:17;;;;;;;;;;;;;;;3.06;77.75;102958.22;5026385;27;19968;-68
2022/01/14 10:49:43;;;;;;;;;;;;;;;2.97;78.36;102944.47;5045655;27;20636;-71
2022/01/14 10:52:27;;;;;;;;;;;;;;;3.11;78.46;102937.19;5030394;27;19969;-68
2022/01/14 10:54:56;;;;;;;;;;;;;;;2.92;79.10;102934.97;5028155;27;19915;-68
2022/01/14 10:57:22;;;;;;;;;;;;;;;2.89;79.89;102921.09;5030829;27;19940;-67
2022/01/14 10:59:48;;;;;;;;;;;;;;;2.83;80.80;102916.00;5046082;27;19911;-68
2022/01/14 11:02:33;;;;;;;;;;;;;;;2.89;80.78;102928.94;5069689;27;19914;-70
2022/01/14 11:05:28;;;;;;;;;;;;;;;2.81;81.25;102915.19;5067004;27;20277;-68
2022/01/14 11:07:53;;;;;;;;;;;;;;;2.82;81.95;102916.88;5048841;27;19918;-68
2022/01/14 11:10:20;;;;;;;;;;;;;;;2.86;82.50;102900.25;5048784;27;19940;-68
2022/01/14 11:12:45;;;;;;;;;;;;;;;3.02;81.78;102909.47;5067748;27;20008;-68
2022/01/14 11:15:11;;;;;;;;;;;;;;;2.94;82.08;102903.56;5049851;27;20154;-68
2022/01/14 11:17:36;;;;;;;;;;;;;;;2.88;82.78;102903.69;5029967;27;20233;-68
2022/01/14 11:20:03;;;;;;;;;;;;;;;2.87;82.70;102900.19;5042653;27;20671;-68
2022/01/14 11:25:12;;;;;;;;;;;;;;;2.86;83.60;102915.94;5066016;27;20468;-68
2022/01/14 11:27:37;;;;;;;;;;;;;;;2.80;83.98;102909.06;5026894;27;20796;-67
2022/01/14 11:30:03;;;;;;;;;;;;;;;2.81;84.20;102902.13;5027639;27;20118;-68
2022/01/14 11:32:28;;;;;;;;;;;;;;;2.84;83.76;102897.66;5040534;27;19915;-69
2022/01/14 11:34:53;;;;;;;;;;;;;;;2.87;84.07;102900.19;5047847;27;20009;-69
2022/01/14 11:37:34;;;;;;;;;;;;;;;2.86;84.72;102890.66;5029160;27;19907;-69
2022/01/14 11:40:00;;;;;;;;;;;;;;;2.89;85.20;102897.56;5064998;27;19913;-68
2022/01/14 11:42:38;;;;;;;;;;;;;;;2.94;85.39;102898.31;5043265;27;19907;-68
2022/01/14 11:45:05;;;;;;;;;;;;;;;2.95;85.20;102904.41;5061442;27;20330;-68
2022/01/14 11:47:41;;;;;;;;;;;;;;;2.95;85.19;102894.81;5065031;27;19918;-68
2022/01/14 11:50:27;;;;;;;;;;;;;;;2.93;85.62;102899.22;5045741;27;20000;-67
2022/01/14 11:52:52;;;;;;;;;;;;;;;2.99;85.86;102886.00;5047546;27;19907;-68
2022/01/14 11:55:20;;;;;;;;;;;;;;;2.96;86.33;102882.59;5066995;27;20057;-68
2022/01/14 11:58:07;;;;;;;;;;;;;;;3.01;85.69;102884.22;5068297;27;20677;-68
2022/01/14 12:00:41;;;;;;;;;;;;;;;3.04;86.11;102886.75;5067746;27;20735;-67
2022/01/14 12:03:06;;;;;;;;;;;;;;;3.02;86.67;102877.25;5044027;27;20332;-67
2022/01/14 12:05:31;;;;;;;;;;;;;;;2.97;86.54;102877.31;5068333;27;19915;-68
2022/01/14 12:08:03;;;;;;;;;;;;;;;3.04;87.01;102884.13;5037940;27;20388;-67
2022/01/14 12:10:29;;;;;;;;;;;;;;;3.03;86.92;102886.78;5058783;27;19979;-68
2022/01/14 12:13:14;;;;;;;;;;;;;;;3.03;86.94;102890.28;5047946;27;19915;-67
2022/01/14 12:15:46;;;;;;;;;;;;;;;3.05;87.64;102887.63;5064728;27;19911;-68
2022/01/14 12:18:12;;;;;;;;;;;;;;;3.00;87.86;102873.78;5040033;27;20537;-69
2022/01/14 12:20:42;;;;;;;;;;;;;;;3.09;87.60;102882.28;5045575;27;19960;-68
2022/01/14 12:23:08;;;;;;;;;;;;;;;3.00;87.82;102869.41;5044942;27;19904;-68
2022/01/14 12:25:40;;;;;;;;;;;;;;;3.08;87.60;102875.31;5050111;27;19934;-68
2022/01/14 12:28:18;;;;;;;;;;;;;;;3.04;87.85;102872.81;5027784;27;19910;-69
2022/01/14 12:30:55;;;;;;;;;;;;;;;3.01;88.12;102878.97;5030781;27;19915;-69
2022/01/14 12:33:42;;;;;;;;;;;;;;;3.12;87.85;102876.13;5047872;27;20161;-69
2022/01/14 12:36:08;;;;;;;;;;;;;;;3.03;88.46;102879.81;5063638;27;19911;-69
2022/01/14 12:38:33;;;;;;;;;;;;;;;3.13;88.41;102876.97;5065025;27;19930;-68
2022/01/14 12:40:58;;;;;;;;;;;;;;;3.09;88.60;102879.66;5024179;27;20030;-68
2022/01/14 12:43:23;;;;;;;;;;;;;;;3.08;88.58;102875.31;5047163;27;19907;-69
2022/01/14 12:45:59;;;;;;;;;;;;;;;3.19;88.78;102866.38;5064997;27;20044;-67
2022/01/14 12:48:40;;;;;;;;;;;;;;;3.18;88.41;102869.88;5062548;27;19914;-68
2022/01/14 12:51:06;;;;;;;;;;;;;;;3.20;88.54;102868.97;5062480;27;19911;-69
2022/01/14 12:53:31;;;;;;;;;;;;;;;3.26;88.50;102871.41;5068192;27;19910;-68
2022/01/14 12:55:59;;;;;;;;;;;;;;;3.30;88.20;102867.00;5024406;27;20150;-68
2022/01/14 12:58:24;;;;;;;;;;;;;;;3.24;88.19;102860.16;5063953;27;19915;-69
2022/01/14 13:00:49;;;;;;;;;;;;;;;3.24;88.16;102860.16;5046622;27;20258;-68
2022/01/14 13:03:15;;;;;;;;;;;;;;;3.33;88.51;102856.44;5063193;27;20234;-68
2022/01/14 13:05:41;;;;;;;;;;;;;;;3.27;88.02;102853.94;5027800;27;19915;-68
2022/01/14 13:08:06;;;;;;;;;;;;;;;3.29;88.22;102846.94;5027761;27;20302;-68
2022/01/14 13:10:32;;;;;;;;;;;;;;;3.22;88.05;102850.59;5040902;27;20238;-69